createdAt,value
2022-08-18T00:02:28.710Z,19.60
2022-08-18T00:06:52.010Z,19.60
2022-08-18T00:11:15.312Z,19.50
2022-08-18T00:15:41.806Z,19.40
2022-08-18T00:20:19.068Z,19.30
2022-08-18T00:24:48.327Z,19.20
2022-08-18T00:29:11.169Z,19.10
2022-08-18T00:33:33.961Z,19.00
2022-08-18T00:37:59.649Z,19.00
2022-08-18T00:42:30.658Z,18.90
2022-08-18T00:46:53.468Z,18.80
2022-08-18T00:51:32.009Z,18.80
2022-08-18T00:55:57.011Z,18.80
2022-08-18T01:00:19.742Z,18.80
2022-08-18T01:04:50.431Z,18.70
2022-08-18T01:09:13.108Z,18.70
2022-08-18T01:13:38.967Z,18.60
2022-08-18T01:18:30.441Z,18.50
2022-08-18T01:23:05.060Z,18.50
2022-08-18T01:27:32.268Z,18.50
2022-08-18T01:31:57.571Z,18.50
2022-08-18T01:36:22.248Z,18.50
2022-08-18T01:41:25.164Z,18.40
2022-08-18T01:45:27.927Z,18.30
2022-08-18T01:49:50.646Z,18.30
2022-08-18T01:54:15.228Z,18.30
2022-08-18T01:58:37.769Z,18.20
2022-08-18T02:03:02.914Z,18.20
2022-08-18T02:07:30.804Z,18.20
2022-08-18T02:11:58.837Z,18.30
2022-08-18T02:16:21.288Z,18.30
2022-08-18T02:20:44.901Z,18.30
2022-08-18T02:25:08.867Z,18.30
2022-08-18T02:29:31.531Z,18.30
2022-08-18T02:33:53.829Z,18.20
2022-08-18T02:38:17.483Z,18.20
2022-08-18T02:42:40.208Z,18.20
2022-08-18T02:47:03.231Z,18.10
2022-08-18T02:51:25.967Z,18.20
2022-08-18T02:55:49.107Z,18.30
2022-08-18T03:00:16.547Z,18.20
2022-08-18T03:04:41.348Z,18.30
2022-08-18T03:09:06.926Z,18.30
2022-08-18T03:13:30.588Z,18.40
2022-08-18T03:17:53.217Z,18.40
2022-08-18T03:22:27.309Z,18.50
2022-08-18T03:26:53.908Z,18.50
2022-08-18T03:31:18.246Z,18.60
2022-08-18T03:35:41.846Z,18.50
2022-08-18T03:40:05.032Z,18.60
2022-08-18T03:44:33.821Z,18.50
2022-08-18T03:48:58.779Z,18.50
2022-08-18T03:53:21.306Z,18.40
2022-08-18T03:57:45.873Z,18.30
2022-08-18T04:02:08.307Z,18.30
2022-08-18T04:06:43.066Z,18.20
2022-08-18T04:11:05.946Z,18.20
2022-08-18T04:15:28.387Z,18.10
2022-08-18T04:19:53.206Z,18.10
2022-08-18T04:24:15.548Z,18.10
2022-08-18T04:28:37.948Z,18.20
2022-08-18T04:33:02.866Z,18.50
2022-08-18T04:37:25.388Z,18.90
2022-08-18T04:41:48.746Z,19.80
2022-08-18T04:46:11.668Z,20.90
2022-08-18T04:50:36.258Z,21.90
2022-08-18T04:54:58.403Z,22.70
2022-08-18T04:59:20.927Z,23.40
2022-08-18T05:03:50.315Z,24.00
2022-08-18T05:08:13.021Z,24.70
2022-08-18T05:12:35.558Z,25.20
2022-08-18T05:17:04.087Z,25.40
2022-08-18T05:21:26.701Z,26.20
2022-08-18T05:25:50.365Z,27.50
2022-08-18T05:30:15.684Z,28.30
2022-08-18T05:34:38.919Z,27.60
2022-08-18T05:39:36.810Z,26.60
2022-08-18T05:43:59.666Z,26.20
2022-08-18T05:48:22.106Z,26.00
2022-08-18T05:53:12.567Z,25.90
2022-08-18T05:57:45.660Z,25.50
2022-08-18T06:02:42.906Z,25.10
2022-08-18T06:07:12.187Z,24.90
2022-08-18T06:11:34.688Z,25.00
2022-08-18T06:16:34.011Z,25.30
2022-08-18T06:21:17.309Z,25.50
2022-08-18T06:26:07.047Z,25.50
2022-08-18T06:31:14.566Z,25.40
2022-08-18T06:35:51.939Z,25.50
2022-08-18T06:40:14.705Z,25.80
2022-08-18T06:44:45.925Z,26.40
2022-08-18T06:49:22.126Z,26.80
2022-08-18T06:54:21.546Z,27.40
2022-08-18T06:58:43.946Z,27.80
2022-08-18T07:03:18.326Z,27.70
2022-08-18T07:07:42.448Z,27.20
2022-08-18T07:12:11.248Z,27.30
2022-08-18T07:16:57.148Z,27.10
2022-08-18T07:21:31.926Z,27.10
2022-08-18T07:26:20.628Z,27.80
2022-08-18T07:31:00.260Z,31.80
2022-08-18T07:35:42.275Z,34.10
2022-08-18T07:40:42.282Z,33.10
2022-08-18T07:45:18.852Z,32.00
2022-08-18T07:50:16.424Z,31.10
2022-08-18T07:54:55.222Z,30.50
2022-08-18T07:59:29.991Z,29.50
2022-08-18T08:04:11.612Z,29.60
2022-08-18T08:09:08.339Z,30.20
2022-08-18T08:13:56.129Z,32.30
2022-08-18T08:18:38.418Z,32.10
2022-08-18T08:23:34.809Z,30.80
2022-08-18T08:28:40.804Z,29.60
2022-08-18T08:33:22.643Z,28.70
2022-08-18T08:37:57.022Z,28.10
2022-08-18T08:42:45.967Z,27.80
2022-08-18T08:47:52.518Z,27.50
2022-08-18T08:52:31.066Z,27.30
2022-08-18T08:56:59.777Z,27.50
2022-08-18T09:01:34.593Z,27.50
2022-08-18T09:06:18.389Z,27.40
2022-08-18T09:11:14.284Z,27.30
2022-08-18T09:15:58.374Z,27.40
2022-08-18T09:20:58.683Z,27.50
2022-08-18T09:25:54.791Z,28.10
2022-08-18T09:31:11.408Z,28.30
2022-08-18T09:36:02.064Z,28.10
2022-08-18T09:41:02.661Z,27.80
2022-08-18T09:45:33.525Z,27.70
2022-08-18T09:50:26.789Z,27.60
2022-08-18T09:55:01.105Z,28.10
2022-08-18T09:59:38.146Z,28.70
2022-08-18T10:04:15.402Z,29.00
2022-08-18T10:09:27.239Z,28.90
2022-08-18T10:14:20.539Z,28.90
2022-08-18T10:19:05.587Z,28.80
2022-08-18T10:24:29.870Z,28.30
2022-08-18T10:29:02.945Z,27.80
2022-08-18T10:33:55.853Z,27.50
2022-08-18T10:38:54.162Z,27.00
2022-08-18T10:48:04.885Z,26.40
2022-08-18T10:53:17.126Z,26.20
2022-08-18T10:58:27.943Z,25.80
2022-08-18T11:03:42.191Z,25.30
2022-08-18T11:07:52.154Z,24.70
2022-08-18T11:13:16.885Z,24.40
2022-08-18T11:18:10.521Z,24.10
2022-08-18T11:22:36.408Z,24.00
2022-08-18T11:27:17.138Z,23.90
2022-08-18T11:31:39.645Z,23.90
2022-08-18T11:36:02.815Z,23.90
2022-08-18T11:41:09.550Z,24.20
2022-08-18T11:45:27.565Z,24.40
2022-08-18T11:50:13.479Z,25.20
2022-08-18T11:54:50.953Z,26.20
2022-08-18T11:59:52.733Z,27.50
2022-08-18T12:04:14.502Z,28.20
2022-08-18T12:08:58.038Z,28.20
2022-08-18T12:13:25.773Z,28.10
2022-08-18T12:17:52.473Z,27.80
2022-08-18T12:22:22.489Z,27.40
2022-08-18T12:31:29.131Z,27.20
2022-08-18T12:36:09.720Z,27.10
2022-08-18T12:40:35.958Z,27.50
2022-08-18T12:44:58.685Z,28.00
2022-08-18T12:49:25.447Z,28.70
2022-08-18T12:53:58.196Z,29.10
2022-08-18T12:58:22.147Z,29.30
2022-08-18T13:02:45.676Z,29.30
2022-08-18T13:07:08.368Z,29.10
2022-08-18T13:11:30.788Z,28.50
2022-08-18T13:15:58.592Z,28.00
2022-08-18T13:20:23.967Z,27.90
2022-08-18T13:24:47.932Z,27.60
2022-08-18T13:29:10.991Z,27.20
2022-08-18T13:33:56.816Z,27.30
2022-08-18T13:38:25.659Z,27.50
2022-08-18T13:42:50.851Z,28.00
2022-08-18T13:47:13.619Z,27.90
2022-08-18T13:51:36.127Z,27.50
2022-08-18T13:56:00.148Z,27.30
2022-08-18T14:00:29.808Z,27.20
2022-08-18T14:04:56.236Z,26.90
2022-08-18T14:09:19.830Z,26.90
2022-08-18T14:13:50.639Z,26.80
2022-08-18T14:18:16.236Z,27.00
2022-08-18T14:22:57.590Z,27.30
2022-08-18T14:27:27.182Z,27.70
2022-08-18T14:31:57.426Z,28.10
2022-08-18T14:36:30.044Z,28.60
2022-08-18T14:40:53.186Z,28.70
2022-08-18T14:45:26.371Z,28.70
2022-08-18T14:49:58.456Z,28.40
2022-08-18T14:54:20.988Z,28.30
2022-08-18T14:58:43.604Z,28.20
2022-08-18T15:03:07.783Z,27.90
2022-08-18T15:07:32.828Z,27.60
2022-08-18T15:12:00.110Z,27.30
2022-08-18T15:16:31.589Z,27.20
2022-08-18T15:21:19.539Z,27.00
2022-08-18T15:25:58.879Z,26.60
2022-08-18T15:30:22.952Z,26.60
2022-08-18T15:34:46.808Z,26.60
2022-08-18T15:39:13.580Z,26.20
2022-08-18T15:43:45.836Z,25.90
2022-08-18T15:48:08.650Z,25.90
2022-08-18T15:52:35.251Z,25.80
2022-08-18T15:56:58.994Z,25.50
2022-08-18T16:01:32.310Z,25.50
2022-08-18T16:05:56.075Z,25.50
2022-08-18T16:10:22.029Z,25.50
2022-08-18T16:14:45.078Z,25.50
2022-08-18T16:19:08.157Z,25.40
2022-08-18T16:23:45.586Z,25.30
2022-08-18T16:42:25.801Z,24.90
2022-08-18T16:46:48.455Z,24.90
2022-08-18T16:51:17.609Z,24.90
2022-08-18T16:55:39.614Z,25.00
2022-08-18T17:00:24.989Z,25.20
2022-08-18T17:04:47.235Z,25.30
2022-08-18T17:09:10.353Z,25.40
2022-08-18T17:13:34.844Z,25.30
2022-08-18T17:17:57.569Z,25.20
2022-08-18T17:22:20.104Z,25.10
2022-08-18T17:27:11.900Z,25.00
2022-08-18T17:32:10.537Z,24.90
2022-08-18T17:36:53.226Z,24.70
2022-08-18T17:41:19.093Z,24.50
2022-08-18T17:45:42.730Z,24.30
2022-08-18T17:51:04.617Z,24.20
2022-08-18T17:55:39.507Z,24.00
2022-08-18T18:00:17.586Z,23.90
2022-08-18T18:04:44.629Z,23.70
2022-08-18T18:09:13.723Z,23.60
2022-08-18T18:13:35.923Z,23.40
2022-08-18T18:17:58.325Z,23.20
2022-08-18T18:22:26.644Z,23.10
2022-08-18T18:26:49.103Z,23.00
2022-08-18T18:31:28.130Z,23.00
2022-08-18T18:35:58.164Z,22.90
2022-08-18T18:40:23.464Z,22.90
2022-08-18T18:44:56.995Z,22.70
2022-08-18T18:49:37.285Z,22.70
2022-08-18T18:54:24.956Z,22.60
2022-08-18T18:58:56.461Z,22.50
2022-08-18T19:03:39.536Z,22.40
2022-08-18T19:08:24.502Z,22.20
2022-08-18T19:13:02.464Z,22.20
2022-08-18T19:17:47.245Z,22.00
2022-08-18T19:22:23.290Z,21.90
2022-08-18T19:26:56.881Z,21.80
2022-08-18T19:31:45.045Z,21.70
2022-08-18T19:37:07.328Z,21.60
2022-08-18T19:41:50.465Z,21.50
2022-08-18T19:46:18.966Z,21.40
2022-08-18T19:51:18.684Z,21.30
2022-08-18T19:56:05.507Z,21.30
2022-08-18T20:00:57.170Z,21.20
2022-08-18T20:05:46.246Z,21.10
2022-08-18T20:10:49.588Z,21.10
2022-08-18T20:15:23.057Z,21.10
2022-08-18T20:19:55.124Z,21.10
2022-08-18T20:24:44.625Z,21.00
2022-08-18T20:29:36.504Z,20.90
2022-08-18T20:34:14.313Z,20.90
2022-08-18T20:38:45.882Z,20.90
2022-08-18T20:43:33.807Z,20.90
2022-08-18T20:48:39.957Z,20.90
2022-08-18T20:53:34.384Z,20.90
2022-08-18T20:58:08.093Z,20.90
2022-08-18T21:02:43.492Z,20.80
2022-08-18T21:07:15.688Z,20.80
2022-08-18T21:11:48.105Z,20.70
2022-08-18T21:16:38.479Z,20.60
2022-08-18T21:21:02.585Z,20.60
2022-08-18T21:25:25.115Z,20.50
2022-08-18T21:29:49.504Z,20.40
2022-08-18T21:34:35.879Z,20.40
2022-08-18T21:39:08.802Z,20.30
2022-08-18T21:43:50.860Z,20.20
2022-08-18T21:48:13.775Z,20.20
2022-08-18T21:52:40.443Z,20.10
2022-08-18T21:57:27.067Z,20.10
2022-08-18T22:01:56.032Z,20.10
2022-08-18T22:06:36.268Z,20.10
2022-08-18T22:12:00.039Z,20.10
2022-08-18T22:16:36.523Z,20.00
2022-08-18T22:21:01.223Z,20.00
2022-08-18T22:25:40.006Z,20.00
2022-08-18T22:30:06.038Z,20.10
2022-08-18T22:34:32.458Z,20.00
2022-08-18T22:38:56.382Z,20.00
2022-08-18T22:43:18.837Z,20.00
2022-08-18T22:47:44.798Z,20.00
2022-08-18T22:52:42.477Z,19.90
2022-08-18T22:57:06.589Z,19.90
2022-08-18T23:01:30.293Z,19.80
2022-08-18T23:05:54.822Z,19.80
2022-08-18T23:10:17.962Z,19.90
2022-08-18T23:14:41.702Z,19.90
2022-08-18T23:19:04.905Z,19.90
2022-08-18T23:23:29.650Z,20.00
2022-08-18T23:27:54.810Z,19.90
2022-08-18T23:32:18.591Z,20.00
2022-08-18T23:36:45.322Z,20.00
2022-08-18T23:41:13.527Z,20.00
2022-08-18T23:45:42.710Z,20.00
2022-08-18T23:50:08.564Z,20.00
2022-08-18T23:54:35.765Z,20.00
2022-08-18T23:58:59.662Z,19.90
